createdAt,value
2019-01-28T00:02:03.549Z,85.80
2019-01-28T00:04:33.273Z,85.80
2019-01-28T00:07:03.216Z,86.20
2019-01-28T00:09:32.997Z,86.10
2019-01-28T00:12:02.814Z,86.20
2019-01-28T00:14:32.602Z,86.60
2019-01-28T00:17:02.391Z,86.40
2019-01-28T00:19:32.082Z,86.50
2019-01-28T00:22:01.807Z,86.80
2019-01-28T00:24:31.541Z,86.30
2019-01-28T00:27:01.308Z,86.00
2019-01-28T00:29:30.998Z,85.70
2019-01-28T00:32:00.777Z,85.40
2019-01-28T00:34:30.525Z,85.30
2019-01-28T00:37:01.499Z,85.60
2019-01-28T00:39:32.129Z,84.90
2019-01-28T00:42:01.805Z,84.50
2019-01-28T00:44:31.572Z,84.10
2019-01-28T00:47:01.266Z,83.60
2019-01-28T00:49:31.017Z,84.20
2019-01-28T00:52:00.752Z,84.70
2019-01-28T00:54:30.459Z,84.70
2019-01-28T00:57:00.197Z,84.60
2019-01-28T00:59:29.937Z,84.50
2019-01-28T01:01:59.671Z,84.50
2019-01-28T01:04:29.355Z,83.70
2019-01-28T01:06:59.093Z,83.70
2019-01-28T01:09:28.774Z,83.70
2019-01-28T01:11:58.525Z,83.60
2019-01-28T01:14:28.262Z,84.10
2019-01-28T01:16:59.014Z,83.70
2019-01-28T01:19:28.779Z,83.70
2019-01-28T01:21:58.466Z,84.20
2019-01-28T01:24:28.228Z,84.50
2019-01-28T01:26:57.913Z,84.50
2019-01-28T01:29:27.606Z,84.80
2019-01-28T01:31:57.354Z,84.90
2019-01-28T01:34:27.103Z,85.00
2019-01-28T01:36:56.886Z,84.90
2019-01-28T01:39:26.596Z,85.00
2019-01-28T01:41:56.307Z,84.90
2019-01-28T01:44:25.981Z,85.00
2019-01-28T01:46:55.724Z,85.00
2019-01-28T01:49:25.456Z,84.80
2019-01-28T01:51:55.265Z,85.00
2019-01-28T01:54:25.009Z,85.00
2019-01-28T01:56:54.731Z,85.10
2019-01-28T01:59:24.518Z,85.30
2019-01-28T02:01:54.297Z,85.30
2019-01-28T02:04:24.108Z,84.80
2019-01-28T02:06:53.796Z,84.70
2019-01-28T02:09:23.545Z,84.90
2019-01-28T02:11:53.230Z,84.50
2019-01-28T02:14:22.950Z,84.40
2019-01-28T02:16:52.633Z,84.20
2019-01-28T02:19:22.393Z,84.00
2019-01-28T02:21:52.149Z,83.70
2019-01-28T02:24:23.083Z,83.70
2019-01-28T02:26:52.832Z,83.20
2019-01-28T02:29:22.591Z,82.90
2019-01-28T02:31:52.261Z,82.90
2019-01-28T02:34:22.025Z,82.90
2019-01-28T02:36:51.762Z,82.80
2019-01-28T02:39:21.514Z,83.00
2019-01-28T02:41:51.218Z,83.10
2019-01-28T02:44:21.001Z,82.90
2019-01-28T02:46:50.747Z,82.60
2019-01-28T02:49:20.505Z,82.80
2019-01-28T02:51:50.253Z,82.80
2019-01-28T02:54:19.987Z,82.60
2019-01-28T02:56:49.759Z,82.60
2019-01-28T02:59:19.498Z,82.40
2019-01-28T03:01:49.281Z,83.20
2019-01-28T03:04:19.028Z,82.00
2019-01-28T03:06:48.789Z,82.10
2019-01-28T03:09:18.548Z,82.50
2019-01-28T03:11:48.389Z,82.60
2019-01-28T03:14:18.139Z,82.50
2019-01-28T03:16:47.880Z,82.30
2019-01-28T03:19:17.722Z,82.40
2019-01-28T03:21:47.469Z,82.70
2019-01-28T03:24:17.218Z,82.30
2019-01-28T03:26:46.958Z,82.50
2019-01-28T03:29:16.733Z,82.50
2019-01-28T03:31:46.503Z,82.20
2019-01-28T03:34:16.235Z,82.10
2019-01-28T03:36:45.988Z,82.20
2019-01-28T03:39:15.758Z,82.40
2019-01-28T03:41:45.507Z,82.50
2019-01-28T03:44:15.256Z,82.40
2019-01-28T03:46:45.092Z,81.60
2019-01-28T03:49:14.844Z,81.40
2019-01-28T03:51:44.821Z,81.10
2019-01-28T03:54:14.778Z,80.80
2019-01-28T03:56:44.527Z,80.40
2019-01-28T03:59:14.273Z,79.80
2019-01-28T04:01:44.012Z,79.70
2019-01-28T04:04:13.687Z,79.90
2019-01-28T04:06:43.368Z,80.00
2019-01-28T04:09:13.049Z,80.40
2019-01-28T04:11:42.790Z,79.50
2019-01-28T04:14:12.442Z,78.20
2019-01-28T04:16:42.391Z,77.60
2019-01-28T04:19:12.140Z,76.50
2019-01-28T04:21:41.916Z,76.40
2019-01-28T04:24:11.689Z,77.00
2019-01-28T04:26:41.353Z,76.90
2019-01-28T04:29:11.132Z,76.40
2019-01-28T04:31:40.875Z,76.00
2019-01-28T04:34:10.660Z,75.90
2019-01-28T04:36:40.381Z,76.10
2019-01-28T04:39:10.227Z,76.50
2019-01-28T04:41:39.974Z,76.10
2019-01-28T04:44:09.734Z,75.80
2019-01-28T04:46:39.484Z,75.80
2019-01-28T04:49:09.222Z,76.10
2019-01-28T04:51:38.988Z,76.20
2019-01-28T04:54:08.723Z,76.30
2019-01-28T04:56:38.645Z,76.40
2019-01-28T04:59:08.370Z,76.40
2019-01-28T05:01:38.128Z,76.30
2019-01-28T05:04:07.829Z,76.40
2019-01-28T05:06:37.564Z,76.40
2019-01-28T05:09:08.379Z,76.40
2019-01-28T05:11:38.180Z,76.50
2019-01-28T05:14:07.946Z,76.90
2019-01-28T05:16:37.660Z,77.20
2019-01-28T05:19:07.409Z,77.30
2019-01-28T05:21:37.149Z,77.40
2019-01-28T05:24:06.830Z,77.40
2019-01-28T05:26:36.507Z,77.60
2019-01-28T05:29:06.269Z,77.70
2019-01-28T05:31:37.071Z,77.90
2019-01-28T05:34:06.759Z,78.00
2019-01-28T05:36:36.488Z,78.00
2019-01-28T05:39:08.599Z,78.20
2019-01-28T05:41:38.377Z,77.90
2019-01-28T05:44:08.559Z,77.90
2019-01-28T05:46:38.426Z,77.80
2019-01-28T05:49:08.188Z,77.70
2019-01-28T05:51:37.978Z,77.70
2019-01-28T05:54:08.786Z,77.70
2019-01-28T05:56:38.669Z,77.80
2019-01-28T05:59:09.483Z,78.00
2019-01-28T06:01:39.700Z,78.20
2019-01-28T06:04:09.431Z,78.30
2019-01-28T06:06:39.192Z,78.50
2019-01-28T06:09:09.423Z,78.90
2019-01-28T06:11:39.118Z,79.20
2019-01-28T06:14:08.852Z,79.60
2019-01-28T06:16:38.651Z,79.80
2019-01-28T06:19:08.303Z,79.70
2019-01-28T06:21:38.279Z,79.80
2019-01-28T06:24:08.059Z,80.10
2019-01-28T06:26:37.726Z,80.00
2019-01-28T06:29:07.429Z,79.60
2019-01-28T06:31:37.108Z,79.90
2019-01-28T06:34:06.951Z,79.80
2019-01-28T06:36:36.631Z,79.80
2019-01-28T06:39:08.509Z,80.00
2019-01-28T06:41:38.567Z,79.80
2019-01-28T06:44:08.270Z,79.70
2019-01-28T06:46:38.057Z,79.20
2019-01-28T06:49:07.970Z,79.50
2019-01-28T06:51:37.883Z,79.40
2019-01-28T06:54:07.645Z,79.10
2019-01-28T06:56:38.568Z,79.20
2019-01-28T06:59:09.823Z,79.50
2019-01-28T07:01:39.556Z,79.40
2019-01-28T07:04:09.308Z,84.30
2019-01-28T07:06:39.112Z,80.30
2019-01-28T07:09:09.165Z,78.90
2019-01-28T07:11:38.854Z,79.50
2019-01-28T07:14:08.587Z,79.20
2019-01-28T07:16:38.367Z,78.30
2019-01-28T07:19:08.053Z,78.30
2019-01-28T07:21:37.796Z,78.00
2019-01-28T07:24:07.476Z,77.80
2019-01-28T07:26:37.236Z,77.90
2019-01-28T07:29:06.944Z,78.90
2019-01-28T07:31:36.688Z,78.00
2019-01-28T07:34:06.519Z,78.00
2019-01-28T07:36:36.325Z,78.40
2019-01-28T07:39:07.427Z,78.20
2019-01-28T07:41:37.132Z,78.50
2019-01-28T07:44:06.844Z,78.40
2019-01-28T07:46:36.540Z,78.40
2019-01-28T07:49:06.277Z,78.50
2019-01-28T07:51:35.974Z,78.20
2019-01-28T07:54:05.783Z,78.20
2019-01-28T07:56:35.498Z,78.30
2019-01-28T07:59:05.248Z,78.30
2019-01-28T08:01:35.349Z,78.00
2019-01-28T08:04:05.223Z,77.90
2019-01-28T08:06:34.935Z,77.70
2019-01-28T08:09:07.162Z,77.60
2019-01-28T08:11:36.863Z,77.40
2019-01-28T08:14:06.798Z,77.30
2019-01-28T08:16:36.660Z,77.10
2019-01-28T08:19:06.734Z,77.20
2019-01-28T08:21:36.738Z,77.30
2019-01-28T08:24:06.514Z,77.20
2019-01-28T08:26:36.237Z,76.90
2019-01-28T08:29:06.033Z,76.40
2019-01-28T08:31:35.713Z,76.40
2019-01-28T08:34:05.447Z,76.50
2019-01-28T08:36:35.145Z,76.50
2019-01-28T08:39:07.593Z,76.30
2019-01-28T08:41:38.405Z,76.10
2019-01-28T08:44:08.160Z,76.10
2019-01-28T08:46:37.925Z,76.00
2019-01-28T08:49:07.801Z,76.10
2019-01-28T08:51:37.597Z,75.80
2019-01-28T08:54:07.356Z,75.70
2019-01-28T08:56:37.133Z,75.90
2019-01-28T08:59:06.916Z,75.50
2019-01-28T09:01:36.624Z,75.70
2019-01-28T09:04:06.995Z,75.60
2019-01-28T09:06:37.287Z,75.70
2019-01-28T09:09:09.035Z,75.60
2019-01-28T09:11:38.875Z,75.50
2019-01-28T09:14:08.981Z,75.90
2019-01-28T09:16:38.759Z,76.00
2019-01-28T09:19:08.522Z,75.90
2019-01-28T09:21:38.330Z,75.50
2019-01-28T09:24:08.080Z,75.10
2019-01-28T09:26:37.768Z,74.80
2019-01-28T09:29:08.376Z,74.80
2019-01-28T09:31:38.141Z,75.10
2019-01-28T09:34:07.906Z,74.70
2019-01-28T09:36:37.608Z,74.60
2019-01-28T09:39:08.011Z,74.70
2019-01-28T09:41:38.853Z,74.60
2019-01-28T09:44:08.566Z,74.60
2019-01-28T09:46:39.951Z,74.50
2019-01-28T09:49:12.998Z,74.00
2019-01-28T09:51:41.789Z,74.00
2019-01-28T09:54:11.547Z,74.10
2019-01-28T09:56:41.299Z,73.90
2019-01-28T09:59:11.087Z,74.00
2019-01-28T10:01:40.809Z,73.60
2019-01-28T10:04:10.546Z,73.10
2019-01-28T10:06:40.240Z,72.50
2019-01-28T10:09:10.245Z,72.60
2019-01-28T10:11:40.222Z,72.90
2019-01-28T10:14:09.952Z,72.40
2019-01-28T10:16:39.763Z,72.60
2019-01-28T10:19:09.556Z,72.60
2019-01-28T10:21:39.335Z,73.10
2019-01-28T10:24:09.048Z,73.00
2019-01-28T10:26:39.262Z,73.10
2019-01-28T10:29:09.012Z,72.60
2019-01-28T10:31:38.683Z,72.30
2019-01-28T10:34:08.518Z,72.20
2019-01-28T10:36:38.289Z,72.30
2019-01-28T10:39:09.681Z,72.10
2019-01-28T10:41:39.373Z,71.70
2019-01-28T10:44:10.244Z,71.60
2019-01-28T10:46:40.324Z,71.90
2019-01-28T10:49:10.202Z,71.80
2019-01-28T10:51:39.848Z,72.00
2019-01-28T10:54:09.546Z,72.80
2019-01-28T10:56:39.233Z,72.80
2019-01-28T10:59:09.020Z,72.90
2019-01-28T11:01:38.792Z,73.20
2019-01-28T11:04:10.498Z,73.40
2019-01-28T11:06:39.946Z,73.80
2019-01-28T11:09:09.688Z,74.00
2019-01-28T11:11:40.178Z,74.00
2019-01-28T11:14:09.982Z,74.20
2019-01-28T11:16:39.963Z,74.20
2019-01-28T11:19:09.823Z,74.40
2019-01-28T11:21:40.742Z,74.50
2019-01-28T11:24:10.488Z,74.40
2019-01-28T11:26:40.553Z,74.10
2019-01-28T11:29:11.243Z,74.20
2019-01-28T11:31:40.962Z,74.00
2019-01-28T11:34:10.803Z,74.00
2019-01-28T11:36:40.469Z,73.80
2019-01-28T11:39:10.721Z,73.80
2019-01-28T11:41:40.464Z,73.80
2019-01-28T11:44:10.209Z,73.80
2019-01-28T11:46:41.030Z,73.80
2019-01-28T11:49:10.819Z,73.60
2019-01-28T11:51:40.681Z,73.80
2019-01-28T11:54:10.448Z,73.70
2019-01-28T11:56:40.525Z,73.30
2019-01-28T11:59:10.223Z,73.10
2019-01-28T12:01:40.063Z,73.40
2019-01-28T12:04:09.844Z,73.40
2019-01-28T12:06:39.545Z,72.90
2019-01-28T12:09:10.680Z,72.80
2019-01-28T12:11:40.490Z,72.30
2019-01-28T12:14:10.322Z,72.00
2019-01-28T12:16:40.062Z,71.90
2019-01-28T12:19:14.203Z,72.00
2019-01-28T12:21:41.223Z,71.80
2019-01-28T12:24:10.973Z,71.90
2019-01-28T12:26:40.749Z,71.60
2019-01-28T12:29:11.683Z,71.80
2019-01-28T12:31:41.740Z,71.80
2019-01-28T12:34:11.510Z,71.20
2019-01-28T12:36:41.270Z,71.50
2019-01-28T12:39:11.048Z,71.60
2019-01-28T12:41:40.806Z,71.80
2019-01-28T12:44:10.588Z,71.90
2019-01-28T12:46:40.318Z,72.20
2019-01-28T12:49:10.066Z,72.10
2019-01-28T12:51:39.893Z,72.30
2019-01-28T12:54:09.641Z,72.50
2019-01-28T12:56:39.728Z,72.60
2019-01-28T12:59:09.481Z,73.10
2019-01-28T13:01:40.253Z,73.60
2019-01-28T13:04:09.995Z,73.90
2019-01-28T13:06:39.820Z,74.60
2019-01-28T13:09:09.528Z,75.10
2019-01-28T13:11:39.278Z,75.80
2019-01-28T13:14:09.027Z,76.50
2019-01-28T13:16:38.799Z,77.00
2019-01-28T13:19:08.611Z,77.30
2019-01-28T13:21:38.363Z,77.00
2019-01-28T13:24:08.265Z,77.50
2019-01-28T13:26:38.114Z,77.30
2019-01-28T13:29:07.845Z,77.20
2019-01-28T13:31:38.084Z,77.40
2019-01-28T13:34:07.916Z,77.60
2019-01-28T13:36:37.696Z,77.40
2019-01-28T13:39:07.750Z,77.70
2019-01-28T13:41:37.524Z,78.20
2019-01-28T13:44:07.340Z,77.80
2019-01-28T13:46:37.119Z,78.00
2019-01-28T13:49:06.871Z,78.10
2019-01-28T13:51:36.633Z,77.90
2019-01-28T13:54:06.464Z,77.70
2019-01-28T13:56:37.195Z,77.90
2019-01-28T13:59:06.887Z,78.00
2019-01-28T14:01:36.636Z,77.90
2019-01-28T14:04:06.309Z,78.20
2019-01-28T14:06:36.018Z,78.80
2019-01-28T14:09:07.265Z,79.40
2019-01-28T14:11:37.944Z,79.50
2019-01-28T14:14:07.690Z,80.10
2019-01-28T14:16:37.451Z,80.70
2019-01-28T14:19:07.237Z,81.00
2019-01-28T14:21:37.055Z,81.30
2019-01-28T14:24:06.814Z,81.70
2019-01-28T14:26:36.496Z,81.90
2019-01-28T14:29:06.178Z,82.30
2019-01-28T14:31:35.946Z,83.10
2019-01-28T14:34:06.657Z,83.70
2019-01-28T14:36:36.840Z,84.10
2019-01-28T14:39:13.543Z,84.40
2019-01-28T14:41:39.473Z,84.70
2019-01-28T14:44:09.227Z,84.70
2019-01-28T14:46:38.915Z,85.10
2019-01-28T14:49:08.688Z,85.00
2019-01-28T14:51:38.441Z,85.40
2019-01-28T14:54:08.196Z,85.90
2019-01-28T14:56:38.050Z,86.00
2019-01-28T14:59:07.798Z,86.00
2019-01-28T15:01:37.479Z,86.20
2019-01-28T15:04:09.792Z,86.40
2019-01-28T15:06:38.688Z,86.50
2019-01-28T15:09:10.429Z,86.50
2019-01-28T15:11:40.196Z,86.60
2019-01-28T15:14:09.884Z,86.70
2019-01-28T15:16:39.571Z,86.80
2019-01-28T15:19:10.352Z,86.90
2019-01-28T15:21:40.284Z,86.70
2019-01-28T15:24:09.968Z,86.60
2019-01-28T15:26:39.646Z,86.50
2019-01-28T15:29:09.389Z,86.20
2019-01-28T15:31:39.073Z,86.50
2019-01-28T15:34:08.828Z,86.80
2019-01-28T15:36:38.593Z,86.70
2019-01-28T15:39:08.795Z,86.90
2019-01-28T15:41:38.484Z,86.90
2019-01-28T15:44:08.452Z,87.20
2019-01-28T15:46:38.175Z,87.00
2019-01-28T15:49:08.022Z,87.10
2019-01-28T15:51:37.714Z,87.20
2019-01-28T15:54:07.541Z,87.20
2019-01-28T15:56:37.217Z,87.10
2019-01-28T15:59:07.059Z,87.00
2019-01-28T16:01:36.802Z,87.00
2019-01-28T16:04:06.531Z,86.60
2019-01-28T16:06:36.548Z,86.50
2019-01-28T16:09:07.640Z,86.80
2019-01-28T16:11:37.397Z,86.30
2019-01-28T16:14:07.120Z,86.20
2019-01-28T16:16:36.823Z,86.20
2019-01-28T16:19:06.589Z,85.90
2019-01-28T16:21:36.472Z,85.90
2019-01-28T16:24:06.239Z,85.70
2019-01-28T16:26:35.988Z,85.80
2019-01-28T16:29:05.723Z,85.50
2019-01-28T16:31:36.376Z,85.70
2019-01-28T16:34:06.150Z,85.90
2019-01-28T16:36:36.931Z,85.90
2019-01-28T16:39:07.491Z,86.00
2019-01-28T16:41:37.182Z,86.20
2019-01-28T16:44:06.971Z,86.50
2019-01-28T16:46:36.752Z,85.90
2019-01-28T16:49:06.648Z,86.20
2019-01-28T16:51:36.379Z,86.30
2019-01-28T16:54:06.183Z,86.60
2019-01-28T16:56:35.919Z,86.80
2019-01-28T16:59:05.714Z,86.80
2019-01-28T17:01:35.810Z,87.20
2019-01-28T17:04:05.489Z,87.40
2019-01-28T17:06:35.170Z,87.50
2019-01-28T17:09:07.123Z,88.00
2019-01-28T17:11:36.890Z,88.70
2019-01-28T17:14:06.619Z,89.00
2019-01-28T17:16:36.373Z,89.20
2019-01-28T17:19:06.115Z,89.30
2019-01-28T17:21:35.891Z,89.60
2019-01-28T17:24:05.648Z,89.60
2019-01-28T17:26:35.371Z,90.00
2019-01-28T17:29:05.085Z,90.10
2019-01-28T17:31:34.837Z,90.10
2019-01-28T17:34:04.564Z,90.10
2019-01-28T17:36:34.227Z,90.00
2019-01-28T17:39:05.516Z,90.10
2019-01-28T17:41:36.530Z,90.10
2019-01-28T17:44:06.264Z,90.00
2019-01-28T17:46:36.020Z,90.10
2019-01-28T17:49:05.767Z,90.20
2019-01-28T17:51:35.510Z,90.20
2019-01-28T17:54:05.257Z,90.20
2019-01-28T17:56:34.924Z,90.30
2019-01-28T17:59:04.680Z,90.30
2019-01-28T18:01:34.424Z,90.40
2019-01-28T18:04:04.128Z,90.50
2019-01-28T18:06:33.841Z,90.60
2019-01-28T18:09:04.984Z,90.60
2019-01-28T18:11:35.895Z,90.50
2019-01-28T18:14:06.749Z,90.60
2019-01-28T18:16:36.495Z,90.60
2019-01-28T18:19:06.270Z,90.50
2019-01-28T18:21:35.924Z,90.50
2019-01-28T18:24:05.605Z,90.50
2019-01-28T18:26:35.274Z,90.70
2019-01-28T18:29:05.040Z,90.50
2019-01-28T18:31:34.757Z,90.50
2019-01-28T18:34:04.555Z,90.50
2019-01-28T18:36:34.319Z,90.40
2019-01-28T18:39:07.093Z,90.40
2019-01-28T18:41:36.934Z,90.50
2019-01-28T18:44:06.600Z,90.40
2019-01-28T18:46:36.414Z,90.50
2019-01-28T18:49:06.175Z,90.50
2019-01-28T18:51:35.974Z,90.50
2019-01-28T18:54:05.887Z,90.70
2019-01-28T18:56:35.629Z,90.70
2019-01-28T18:59:05.622Z,90.60
2019-01-28T19:01:35.561Z,90.90
2019-01-28T19:04:05.313Z,90.50
2019-01-28T19:06:36.658Z,90.60
2019-01-28T19:09:08.602Z,90.50
2019-01-28T19:11:42.711Z,90.50
2019-01-28T19:14:14.100Z,90.60
2019-01-28T19:16:52.028Z,90.50
2019-01-28T19:19:24.067Z,90.60
2019-01-28T19:21:55.471Z,91.20
2019-01-28T19:24:25.238Z,90.80
2019-01-28T19:26:54.977Z,90.40
2019-01-28T19:29:24.670Z,90.50
2019-01-28T19:31:54.473Z,90.40
2019-01-28T19:34:24.248Z,90.40
2019-01-28T19:36:53.981Z,90.40
2019-01-28T19:39:23.724Z,90.40
2019-01-28T19:41:53.558Z,90.30
2019-01-28T19:44:23.321Z,90.40
2019-01-28T19:46:54.677Z,90.20
2019-01-28T19:49:24.412Z,90.30
2019-01-28T19:51:54.168Z,90.40
2019-01-28T19:54:24.042Z,90.30
2019-01-28T19:56:53.776Z,90.20
2019-01-28T19:59:23.470Z,90.20
2019-01-28T20:01:54.229Z,90.20
2019-01-28T20:04:23.988Z,90.20
2019-01-28T20:06:53.727Z,90.20
2019-01-28T20:09:23.508Z,90.20
2019-01-28T20:11:53.299Z,90.30
2019-01-28T20:14:23.015Z,90.20
2019-01-28T20:16:52.761Z,90.10
2019-01-28T20:19:22.456Z,90.30
2019-01-28T20:21:52.302Z,90.30
2019-01-28T20:24:23.171Z,90.30
2019-01-28T20:26:52.939Z,90.70
2019-01-28T20:29:22.708Z,90.70
2019-01-28T20:31:52.456Z,90.40
2019-01-28T20:34:22.247Z,90.50
2019-01-28T20:36:51.952Z,90.40
2019-01-28T20:39:22.632Z,90.40
2019-01-28T20:41:53.203Z,90.60
2019-01-28T20:44:22.912Z,90.70
2019-01-28T20:46:54.125Z,90.50
2019-01-28T20:49:25.975Z,90.30
2019-01-28T20:51:55.978Z,90.50
2019-01-28T20:54:26.383Z,90.50
2019-01-28T20:56:56.197Z,90.40
2019-01-28T20:59:26.540Z,90.30
2019-01-28T21:01:57.405Z,90.30
2019-01-28T21:04:27.663Z,90.40
2019-01-28T21:06:57.458Z,90.30
2019-01-28T21:09:27.441Z,90.40
2019-01-28T21:11:58.469Z,90.50
2019-01-28T21:14:28.278Z,90.40
2019-01-28T21:16:58.067Z,90.50
2019-01-28T21:19:27.805Z,90.70
2019-01-28T21:21:59.163Z,90.20
2019-01-28T21:24:29.471Z,90.10
2019-01-28T21:26:59.456Z,90.10
2019-01-28T21:29:29.162Z,90.00
2019-01-28T21:31:59.830Z,90.00
2019-01-28T21:34:29.528Z,89.70
2019-01-28T21:37:00.898Z,90.00
2019-01-28T21:39:30.774Z,89.80
2019-01-28T21:42:00.438Z,89.60
2019-01-28T21:44:30.197Z,89.10
2019-01-28T21:46:59.954Z,89.00
2019-01-28T21:49:29.627Z,89.00
2019-01-28T21:51:59.381Z,89.00
2019-01-28T21:54:29.143Z,89.20
2019-01-28T21:56:58.901Z,89.40
2019-01-28T21:59:28.581Z,89.90
2019-01-28T22:01:58.351Z,90.00
2019-01-28T22:04:28.104Z,90.00
2019-01-28T22:06:57.770Z,89.70
2019-01-28T22:09:27.511Z,89.90
2019-01-28T22:11:57.247Z,90.00
2019-01-28T22:14:27.000Z,89.80
2019-01-28T22:16:56.738Z,89.80
2019-01-28T22:19:26.492Z,89.30
2019-01-28T22:21:59.177Z,89.60
2019-01-28T22:24:27.567Z,89.30
2019-01-28T22:26:57.253Z,89.50
2019-01-28T22:29:27.045Z,90.10
2019-01-28T22:31:56.771Z,89.40
2019-01-28T22:34:26.548Z,89.30
2019-01-28T22:36:56.212Z,89.10
2019-01-28T22:39:25.907Z,89.10
2019-01-28T22:41:55.575Z,89.40
2019-01-28T22:44:25.253Z,89.10
2019-01-28T22:46:55.066Z,88.80
2019-01-28T22:49:25.261Z,88.50
2019-01-28T22:51:56.993Z,88.40
2019-01-28T22:54:26.820Z,88.00
2019-01-28T22:56:56.616Z,87.70
2019-01-28T22:59:26.359Z,87.20
2019-01-28T23:01:56.126Z,87.10
2019-01-28T23:04:25.871Z,86.60
2019-01-28T23:06:55.594Z,86.50
2019-01-28T23:09:25.289Z,86.70
2019-01-28T23:11:55.015Z,86.50
2019-01-28T23:14:24.755Z,86.00
2019-01-28T23:16:54.426Z,85.60
2019-01-28T23:19:24.185Z,85.30
2019-01-28T23:21:54.884Z,85.00
2019-01-28T23:24:25.695Z,85.70
2019-01-28T23:26:56.593Z,85.40
2019-01-28T23:29:26.427Z,85.40
2019-01-28T23:31:56.088Z,85.40
2019-01-28T23:34:25.770Z,85.60
2019-01-28T23:36:55.518Z,85.50
2019-01-28T23:39:25.256Z,86.00
2019-01-28T23:41:54.999Z,86.20
2019-01-28T23:44:24.743Z,86.00
2019-01-28T23:46:54.505Z,85.90
2019-01-28T23:49:24.259Z,86.00
2019-01-28T23:51:54.015Z,86.20
2019-01-28T23:54:23.764Z,86.20
2019-01-28T23:56:53.525Z,86.50
2019-01-28T23:59:23.261Z,86.80
